シカゴ/オヘア の空港の天気 - METARとTAF

シカゴ・オヘア国際空港 ( KORD / ORD ) - アメリカ イリノイ州シカゴ
飛行場実況気象(Metar)
観測時間10/19 12:51 CDT (10/19 17:51 UTC)
風向・風速南南西 6m/s
視程10km以上
天気現象弱い雨
全天を覆う雲 雲底高度 1830m
気温10℃
湿度77%
気圧1014.7hPa
METARKORD 191751Z 21012KT 10SM -RA OVC060 10/06 A2996 RMK AO2 SLP147 P0001 60001 T01000061 10111 20083 58039
過去の天気等 Google飛行場航空写真 Wunderground天気予報

過去48時間のMETAR

飛行場予報(TAF)
発表時間: 10/19 12:49 CDT (10/19 17:49 UTC)
予報対象時間: 19日13時 CDT ~ 20日19時 CDT
風向・風速南西 7m/s 瞬間風速 10m/s
視程10km以上
天気現象弱いしゅう雨
全天の4割程度の雲 雲底高度 1220m
全天を覆う雲 雲底高度 1830m
19日15時 CDT から
風向・風速南西 7m/s 瞬間風速 11m/s
視程10km以上
全天の4割程度の雲 雲底高度 760m
全天を覆う雲 雲底高度 1070m
19日17時 CDT から
風向・風速南西 6m/s 瞬間風速 10m/s
視程10km以上
全天を覆う雲 雲底高度 610m
19日22時 CDT から
風向・風速西北西 6m/s
視程10km以上
少しの雲 雲底高度 7620m
20日9時 CDT から
風向・風速西北西 8m/s 瞬間風速 13m/s
視程10km以上
全天の8割程度の雲 雲底高度 1830m
20日11時 CDT から
風向・風速北西 10m/s 瞬間風速 16m/s
視程10km以上
天気現象周辺でしゅう雨
全天の4割程度の雲 雲底高度 910m
全天の8割程度の雲 雲底高度 1520m
20日15時 CDT から
風向・風速北北西 10m/s 瞬間風速 14m/s
視程10km以上
全天の4割程度の雲 雲底高度 1220m
KORD 191749Z 1918/2024 22013G20KT P6SM -SHRA SCT040 OVC060
FM192000 23014G22KT P6SM SCT025 OVC035
FM192200 23012G19KT P6SM OVC020
FM200300 29011KT P6SM FEW250
FM201400 29015G25KT P6SM BKN060
FM201600 32020G32KT P6SM VCSH SCT030 BKN050
FM202000 33019G28KT P6SM SCT040